Sign in:
Email
 Password  save:
  
 Company Reports 
 
   
My Recent Searches
  Help
 
   
 
 
Get Institutions for : 
Liberty Media Corporation (LMCA)    
$124.76 1.95 (1.54%) as of 4:30 Thu 4/17


Download
     
Institutional Holders
Viewing Quarter :
  
Total Institutions: 645    16
Total shares held : 
166,908,780  
% of shares held : 
128.02%  
Changes In:
New/increased positions vs   
old/decreased positions : 
  -50  
Amount of shares held : 
2,890,911  
% of shares held change : 
  2.22%  
Quarter Price vs. Current Price:
Last Quarter's Starting Price
$148.57  
Last Quarter's Ending Price : 
$146.29  
Last Quarter's Average Price
$149.32  
Change from last quarter's     
avg. price to the last closing  : 
24.56 (16.45%)  




 
All Securities Held :
Positions
     Shares
% Of
Total Shares
New Positions :
54
 1,865,577
 1.12%
 
Increased Positions :
203
 29,203,693
 17.5%
 
Unchanged Positions :
119
 7,966,164
 4.77%
 
Decreased Positions :
269
-26,454,069
-15.85%
 
Closed Positions :
38
-1,724,290
-1.03%
 
Guru Positions :
2
5,879,730
 3.52%
 
View holdings for period: 
3-31-2012 View holdings for period: 
6-30-2012 View holdings for period: 
9-30-2012 View holdings for period: 
12-31-2012 View holdings for period: 
3-31-2013 View holdings for period: 
6-30-2013 View holdings for period: 
9-30-2013 View holdings for the current period

  Page 1 of 1  
Free Registration Required For Full Results


            Institution Name
Portfolio
Position
New/Closed
Position

Filing Date

Total Shares

Total Value

Change in Shares

File
   BERKSHIRE HATHAWAY INC -- Notable Guru -- 20 - 2013-12-31 5,300,000 $775,347,000 -322,340
   FMR LLC 221 - 2013-12-31 4,869,068 $713,075,000 3,942,568
   HORIZON KINETICS LLC 1 - 2013-12-31 4,638,815 $678,621,000 -134,622
   CAPITAL WORLD INVESTORS 128 - 2013-12-31 4,144,651 $606,984,000 0
   CLEARBRIDGE ADVISORS LLC 30 - 2013-12-31 3,802,945 $556,340,000 177,334
   VANGUARD GROUP INC 496 - 2013-12-31 3,191,894 $467,450,000 -2,998,340
   D E SHAW & CO INC 9 - 2013-12-31 3,113,233 $455,933,000 1,026,503
   BLACKROCK INSTITUTIONAL TRUST COMPANY 314 - 2013-12-31 2,344,228 $342,942,000 -6,183
   PRINCIPAL FINANCIAL GROUP INC 14 - 2013-12-31 2,173,369 $318,278,000 75,742
   ALLIANCEBERNSTEIN L.P. 93 - 2013-12-31 2,126,685 $311,453,000 -100,310
   ROBECO INVESTMENT MANAGEMENT INC 45 - 2013-12-31 2,068,026 $302,862,000 229,445
   STATE STREET CORP 469 - 2013-12-31 2,022,406 $296,187,000 216,150
   GOLDMAN SACHS GROUP INC/ 224 - 2013-12-31 1,541,629 $225,528,000 289,508
   LONE PINE CAPITAL LLC 39 - 2013-12-31 1,521,783 $222,625,000 -89,857
   SEIZERT CAPITAL PARTNERS LLC 1 - 2013-12-31 1,417,577 $207,380,000 65,963
   INVESCO LTD 329 - 2013-12-31 1,216,833 $178,013,000 -185,422
   BAMCO INC /NY/ 47 - 2013-12-31 1,121,067 $164,180,000 -176,293
   POINTSTATE CAPITAL LP 15 - 2013-12-31 1,092,959 $159,891,000 979,559
   ING INVESTMENT MANAGEMENT LLC 74 - 2013-12-31 1,046,739 $153,294,000 986,714
   SENATOR INVESTMENT GROUP LP 26 - 2013-12-31 1,000,000 $146,292,000 0
   MUNDER CAPITAL MANAGEMENT 7 - 2013-12-31 994,727 $145,521,000 -5,250
   BLACKROCK ADVISORS LLC 168 - 2013-12-31 986,246 $144,279,000 921,150
   KENSICO CAPITAL MANAGEMENT CORP 10 - 2013-12-31 964,000 $141,178,000 -624,800
   TIGER GLOBAL MANAGEMENT LLC 20 - 2013-12-31 914,410 $133,771,000 -405,590
   FPR PARTNERS LLC 8 - 2013-12-31 863,588 $126,336,000 -101,719
   FRANKLIN RESOURCES INC 326 - 2013-12-31 807,904 $118,316,000 -30,630
   BLACKROCK GROUP LTD 306 - 2013-12-31 782,993 $114,546,000 -49,767
   GAMCO INVESTORS INC ET AL 47 - 2013-12-31 741,479 $108,472,000 -138,888
   ARROWSTREET CAPITAL LIMITED PARTNERSHIP 45 - 2013-12-31 719,109 $105,314,000 -139,410
   MARSICO CAPITAL MANAGEMENT LLC 38 - 2013-12-31 689,691 $101,005,000 371,032
   BLACKROCK FUND ADVISORS 837 - 2013-12-31 689,802 $100,913,000 -30,283
   NORTHERN TRUST CORP 464 - 2013-12-31 663,939 $97,129,000 -2,549
   DIMENSIONAL FUND ADVISORS INC 295 - 2013-12-31 630,176 $92,288,000 149,842
   WEITZ WALLACE R & CO -- Notable Guru -- 13 - 2013-12-31 579,730 $84,901,000 55,245
   FIRST MANHATTAN CO 42 - 2013-12-31 579,665 $84,800,000 -12,806
   GABELLI FUNDS LLC 55 - 2013-12-31 533,100 $77,988,000 -68,900
   MORGAN STANLEY 538 - 2013-12-31 532,916 $77,960,000 72,490
   JANA PARTNERS LLC 30 *New 2013-12-31 530,976 $77,678,000 530,976
   GEODE CAPITAL MANAGEMENT LLC 351 - 2013-12-31 521,040 $76,296,000 54,055
   DEUTSCHE BANK AG 389 - 2013-12-31 503,892 $73,713,000 284,587
   EMPYREAN CAPITAL PARTNERS LP 6 - 2013-12-31 500,000 $73,146,000 0
   WELLS FARGO & CO/MN 574 - 2013-12-31 491,910 $71,963,000 276,027
   BANK OF AMERICA CORP /DE/ 498 - 2013-12-31 485,489 $71,022,000 403,393
   AMERIPRISE FINANCIAL INC 405 - 2013-12-31 475,763 $69,647,000 -56,598
   TIAA CREF INVESTMENT MANAGEMENT LLC 409 - 2013-12-31 460,774 $67,480,000 -10,400
   STATE OF NEW JERSEY COMMON PENSION FUND A 81 *New 2013-12-31 440,000 $64,438,000 440,000
   J P MORGAN CHASE & CO 669 - 2013-12-31 430,494 $62,977,000 310,535
   JANUS CAPITAL MANAGEMENT LLC 351 - 2013-12-31 422,212 $61,833,000 32,776
   BANK OF NEW YORK MELLON CORP 776 - 2013-12-31 418,595 $61,236,000 -48,059
   MARKSTON INTERNATIONAL LLC 1 - 2013-12-31 418,158 $61,173,000 144,403
   RENAISSANCE TECHNOLOGIES LLC 143 - 2013-12-31 402,356 $58,861,000 394,000
   LEGAL & GENERAL GROUP PLC 317 - 2013-12-31 400,158 $58,603,000 4,207
   CREDIT SUISSE/ 351 - 2013-12-31 354,764 $51,899,000 78,171
   CLOUGH CAPITAL PARTNERS L P 9 - 2013-12-31 352,787 $51,610,000 -300
   UNITED STATES STEEL & CARNEGIE PENSION FD 46 - 2013-12-31 328,107 $47,999,000 -194,019
   BNP PARIBAS ARBITRAGE SA 91 - 2013-12-31 322,985 $47,301,000 -107,159
   CITADEL ADVISORS LLC 269 - 2013-12-31 317,865 $46,551,000 187,699
   THIRD AVENUE MANAGEMENT LLC 37 - 2013-12-31 302,959 $44,368,000 -133,475
   SG AMERICAS SECURITIES LLC 121 - 2013-12-31 292,087 $42,776,000 85,742
   MIURA GLOBAL MANAGEMENT LLC 8 - 2013-12-31 290,000 $42,425,000 45,000
   PRICE T ROWE ASSOCIATES INC /MD/ 896 - 2013-12-31 282,515 $41,374,000 56,465
   CALIFORNIA PUBLIC EMPLOYEES RETIREMENT SYSTEM 325 - 2013-12-31 285,023 $41,374,000 -61,577
   KING LUTHER CAPITAL MANAGEMENT CORP 97 - 2013-12-31 281,754 $41,218,000 -2,905
   MANAGED ACCOUNT ADVISORS LLC 377 - 2013-12-31 280,315 $41,008,000 75,505
   SUMITOMO MITSUI TRUST HOLDINGS, INC. 276 - 2013-12-31 279,546 $40,878,000 -15,141
   Napier Park Global Capital LLC 1 - 2013-12-31 259,287 $37,973,000 0
   KINGSTOWN CAPITAL MANAGEMENT L.P. 10 - 2013-12-31 250,000 $36,613,000 25,000
   GUGGENHEIM CAPITAL LLC 232 - 2013-12-31 249,560 $36,547,000 210,066
   PUBLIC EMPLOYEES RETIREMENT SYSTEM OF OHIO 113 - 2013-12-31 235,146 $34,437,000 199,185
   INDEPENDENCE CAPITAL ASSET PARTNERS LLC 2 - 2013-12-31 231,881 $33,922,000 -21,291
   HSBC HOLDINGS PLC 216 - 2013-12-31 228,921 $33,490,000 145,655
   UBS GLOBAL ASSET MANAGEMENT AMERICAS INC 462 - 2013-12-31 224,177 $32,830,000 -6,387
   CANADA PENSION PLAN INVESTMENT BOARD 160 - 2013-12-31 220,000 $32,184,000 211,700
   APG ALL PENSIONS GROUP 246 - 2013-12-31 213,188 $31,221,000 85,587
   LOOMIS SAYLES & CO L P 189 - 2013-12-31 211,559 $30,983,000 -60,585
   SAC CAPITAL ADVISORS LP 135 - 2013-12-31 205,217 $30,054,000 -37,484
   VISIUM ASSET MANAGEMENT LP 32 - 2013-12-31 200,933 $29,427,000 35,107
   ROBECO INSTITUTIONAL ASSET MANAGEMENT B.V. 98 - 2013-12-31 195,795 $28,675,000 44,435
   AQR CAPITAL MANAGEMENT LLC 273 - 2013-12-31 182,409 $26,714,000 155,909
   DORSAL CAPITAL MANAGEMENT, LLC 10 - 2013-12-31 180,000 $26,333,000 -20,000
   STATE BOARD OF ADMINISTRATION OF FLORIDA RETIREMEN 264 - 2013-12-31 177,182 $25,948,000 -280
   CALIFORNIA STATE TEACHERS RETIREMENT SYSTEM 290 - 2013-12-31 173,244 $25,372,000 -35,591
   ARNHOLD & S BLEICHROEDER ADVISERS LLC 128 - 2013-12-31 156,391 $22,903,000 83,036
   BLACKROCK INC. 486 - 2013-12-31 140,480 $20,551,000 102,829
   S&CO INC 7 - 2013-12-31 140,258 $20,519,000 -111,695
   MARKEL CORP 39 - 2013-12-31 134,000 $19,603,000 122,000
   MIZUHO TRUST & BANKING CO., LTD. 312 - 2013-12-31 135,044 $18,907,000 3,737
   WALLACE CAPITAL MANAGEMENT INC. 9 - 2013-12-31 128,688 $18,826,000 2,232
   RUSSELL FRANK CO/ 563 - 2013-12-31 141,537 $18,679,000 124,837
   KIRR MARBACH & CO LLC /IN/ 11 - 2013-12-31 124,024 $18,144,000 -1,224
   MID CONTINENT CAPITAL LLC/IL 28 - 2013-12-31 123,978 $18,137,000 -2,411
   INVERNESS COUNSEL INC /NY/ 26 - 2013-12-31 123,540 $18,073,000 -2,701
   OPPENHEIMER FUNDS INC 592 - 2013-12-31 118,878 $17,410,000 -22,500
   NOMURA HOLDINGS INC 98 - 2013-12-31 115,263 $16,844,000 8,504
   MILLENNIUM MANAGEMENT LLC 383 - 2013-12-31 114,860 $16,803,000 105,492
   NATIONWIDE FUND ADVISORS 351 - 2013-12-31 113,080 $16,561,000 110,731
   COMMERZBANK AKTIENGESELLSCHAFT 145 - 2013-12-31 125,562 $16,527,000 -6,188
   BLACKROCK JAPAN CO LTD 327 - 2013-12-31 107,564 $15,736,000 100,771
   BLACKROCK INVESTMENT MANAGEMENT LLC 636 - 2013-12-31 103,093 $15,082,000 5,955
   UBS AG 732 - 2013-12-31 101,895 $14,906,000 -18,769

  100 Records found
  1    
  Page 1 of 1
Free Registration Required For Full Results